sensor_id;sensor_type;location;lat;lon;timestamp;temperature;humidity
5415;DHT22;2730;51.512;7.504;2023-07-30T00:01:32;17.20;99.90
5415;DHT22;2730;51.512;7.504;2023-07-30T00:03:59;17.20;99.90
5415;DHT22;2730;51.512;7.504;2023-07-30T00:06:26;17.10;99.90
5415;DHT22;2730;51.512;7.504;2023-07-30T00:08:52;17.10;99.90
5415;DHT22;2730;51.512;7.504;2023-07-30T00:11:21;17.10;99.90
5415;DHT22;2730;51.512;7.504;2023-07-30T00:13:47;17.10;99.90
5415;DHT22;2730;51.512;7.504;2023-07-30T00:16:14;17.00;99.90
5415;DHT22;2730;51.512;7.504;2023-07-30T00:18:41;17.00;99.90
5415;DHT22;2730;51.512;7.504;2023-07-30T00:21:08;16.90;99.90
5415;DHT22;2730;51.512;7.504;2023-07-30T00:23:34;16.90;99.90
5415;DHT22;2730;51.512;7.504;2023-07-30T00:26:01;16.80;99.90
5415;DHT22;2730;51.512;7.504;2023-07-30T00:28:29;16.70;99.90
5415;DHT22;2730;51.512;7.504;2023-07-30T00:30:56;16.70;99.90
5415;DHT22;2730;51.512;7.504;2023-07-30T00:33:23;16.70;99.90
5415;DHT22;2730;51.512;7.504;2023-07-30T00:35:51;16.60;99.90
5415;DHT22;2730;51.512;7.504;2023-07-30T00:38:18;16.60;99.90
5415;DHT22;2730;51.512;7.504;2023-07-30T00:40:44;16.50;99.90
5415;DHT22;2730;51.512;7.504;2023-07-30T00:43:11;16.50;99.90
5415;DHT22;2730;51.512;7.504;2023-07-30T00:45:41;16.40;99.90
5415;DHT22;2730;51.512;7.504;2023-07-30T00:48:09;16.40;99.90
5415;DHT22;2730;51.512;7.504;2023-07-30T00:50:37;16.40;99.90
5415;DHT22;2730;51.512;7.504;2023-07-30T00:53:04;16.30;99.90
5415;DHT22;2730;51.512;7.504;2023-07-30T00:55:31;16.30;99.90
5415;DHT22;2730;51.512;7.504;2023-07-30T00:57:58;16.30;99.90
5415;DHT22;2730;51.512;7.504;2023-07-30T01:00:26;16.30;99.90
5415;DHT22;2730;51.512;7.504;2023-07-30T01:02:56;16.20;99.90
5415;DHT22;2730;51.512;7.504;2023-07-30T01:05:22;16.10;99.90
5415;DHT22;2730;51.512;7.504;2023-07-30T01:07:49;16.10;99.90
5415;DHT22;2730;51.512;7.504;2023-07-30T01:10:16;16.10;99.90
5415;DHT22;2730;51.512;7.504;2023-07-30T01:12:44;16.00;99.90
5415;DHT22;2730;51.512;7.504;2023-07-30T01:15:12;15.90;99.90
5415;DHT22;2730;51.512;7.504;2023-07-30T01:17:39;15.90;99.90
5415;DHT22;2730;51.512;7.504;2023-07-30T01:20:08;15.90;99.90
5415;DHT22;2730;51.512;7.504;2023-07-30T01:22:38;15.90;99.90
5415;DHT22;2730;51.512;7.504;2023-07-30T01:25:05;15.80;99.90
5415;DHT22;2730;51.512;7.504;2023-07-30T01:27:37;15.70;99.90
5415;DHT22;2730;51.512;7.504;2023-07-30T01:30:11;15.70;99.90
5415;DHT22;2730;51.512;7.504;2023-07-30T01:32:41;15.60;99.90
5415;DHT22;2730;51.512;7.504;2023-07-30T01:35:08;15.60;99.90
5415;DHT22;2730;51.512;7.504;2023-07-30T01:37:38;15.50;99.90
5415;DHT22;2730;51.512;7.504;2023-07-30T01:40:07;15.50;99.90
5415;DHT22;2730;51.512;7.504;2023-07-30T01:42:34;15.50;99.90
5415;DHT22;2730;51.512;7.504;2023-07-30T01:45:01;15.50;99.90
5415;DHT22;2730;51.512;7.504;2023-07-30T01:47:28;15.40;99.90
5415;DHT22;2730;51.512;7.504;2023-07-30T01:49:54;15.50;99.90
5415;DHT22;2730;51.512;7.504;2023-07-30T01:52:21;15.50;99.90
5415;DHT22;2730;51.512;7.504;2023-07-30T01:54:49;15.50;99.90
5415;DHT22;2730;51.512;7.504;2023-07-30T01:57:16;15.50;99.90
5415;DHT22;2730;51.512;7.504;2023-07-30T01:59:43;15.40;99.90
5415;DHT22;2730;51.512;7.504;2023-07-30T02:02:10;15.50;99.90
5415;DHT22;2730;51.512;7.504;2023-07-30T02:04:36;15.50;99.90
5415;DHT22;2730;51.512;7.504;2023-07-30T02:07:04;15.50;99.90
5415;DHT22;2730;51.512;7.504;2023-07-30T02:09:30;15.40;99.90
5415;DHT22;2730;51.512;7.504;2023-07-30T02:11:58;15.40;99.90
5415;DHT22;2730;51.512;7.504;2023-07-30T02:14:25;15.30;99.90
5415;DHT22;2730;51.512;7.504;2023-07-30T02:16:52;15.30;99.90
5415;DHT22;2730;51.512;7.504;2023-07-30T02:19:22;15.30;99.90
5415;DHT22;2730;51.512;7.504;2023-07-30T02:21:49;15.20;99.90
5415;DHT22;2730;51.512;7.504;2023-07-30T02:24:15;15.20;99.90
5415;DHT22;2730;51.512;7.504;2023-07-30T02:26:42;15.10;99.90
5415;DHT22;2730;51.512;7.504;2023-07-30T02:29:10;15.20;99.90
5415;DHT22;2730;51.512;7.504;2023-07-30T02:31:38;15.10;99.90
5415;DHT22;2730;51.512;7.504;2023-07-30T02:34:05;15.10;99.90
5415;DHT22;2730;51.512;7.504;2023-07-30T02:36:33;15.00;99.90
5415;DHT22;2730;51.512;7.504;2023-07-30T02:39:00;15.10;99.90
5415;DHT22;2730;51.512;7.504;2023-07-30T02:41:26;15.10;99.90
5415;DHT22;2730;51.512;7.504;2023-07-30T02:43:53;15.00;99.90
5415;DHT22;2730;51.512;7.504;2023-07-30T02:46:21;15.10;99.90
5415;DHT22;2730;51.512;7.504;2023-07-30T02:48:48;15.00;99.90
5415;DHT22;2730;51.512;7.504;2023-07-30T02:51:15;15.10;99.90
5415;DHT22;2730;51.512;7.504;2023-07-30T02:53:43;15.10;99.90
5415;DHT22;2730;51.512;7.504;2023-07-30T02:56:10;15.10;99.90
5415;DHT22;2730;51.512;7.504;2023-07-30T02:58:36;15.10;99.90
5415;DHT22;2730;51.512;7.504;2023-07-30T03:01:06;15.10;99.90
5415;DHT22;2730;51.512;7.504;2023-07-30T03:03:35;15.00;99.90
5415;DHT22;2730;51.512;7.504;2023-07-30T03:06:01;15.00;99.90
5415;DHT22;2730;51.512;7.504;2023-07-30T03:08:28;15.10;99.90
5415;DHT22;2730;51.512;7.504;2023-07-30T03:10:57;15.10;99.90
5415;DHT22;2730;51.512;7.504;2023-07-30T03:13:25;15.10;99.90
5415;DHT22;2730;51.512;7.504;2023-07-30T03:15:52;15.00;99.90
5415;DHT22;2730;51.512;7.504;2023-07-30T03:18:19;15.00;99.90
5415;DHT22;2730;51.512;7.504;2023-07-30T03:20:47;15.00;99.90
5415;DHT22;2730;51.512;7.504;2023-07-30T03:23:13;14.90;99.90
5415;DHT22;2730;51.512;7.504;2023-07-30T03:25:40;14.90;99.90
5415;DHT22;2730;51.512;7.504;2023-07-30T03:28:07;14.80;99.90
5415;DHT22;2730;51.512;7.504;2023-07-30T03:30:34;14.80;99.90
5415;DHT22;2730;51.512;7.504;2023-07-30T03:33:00;14.80;99.90
5415;DHT22;2730;51.512;7.504;2023-07-30T03:35:27;14.70;99.90
5415;DHT22;2730;51.512;7.504;2023-07-30T03:37:55;14.70;99.90
5415;DHT22;2730;51.512;7.504;2023-07-30T03:40:22;14.70;99.90
5415;DHT22;2730;51.512;7.504;2023-07-30T03:42:49;14.80;99.90
5415;DHT22;2730;51.512;7.504;2023-07-30T03:45:16;14.80;99.90
5415;DHT22;2730;51.512;7.504;2023-07-30T03:47:43;14.70;99.90
5415;DHT22;2730;51.512;7.504;2023-07-30T03:50:09;14.70;99.90
5415;DHT22;2730;51.512;7.504;2023-07-30T03:52:36;14.70;99.90
5415;DHT22;2730;51.512;7.504;2023-07-30T03:55:05;14.70;99.90
5415;DHT22;2730;51.512;7.504;2023-07-30T03:57:32;14.80;99.90
5415;DHT22;2730;51.512;7.504;2023-07-30T03:59:59;14.80;99.90
5415;DHT22;2730;51.512;7.504;2023-07-30T04:02:26;14.70;99.90
5415;DHT22;2730;51.512;7.504;2023-07-30T04:04:53;14.70;99.90
5415;DHT22;2730;51.512;7.504;2023-07-30T04:07:19;14.80;99.90
5415;DHT22;2730;51.512;7.504;2023-07-30T04:09:46;14.70;99.90
5415;DHT22;2730;51.512;7.504;2023-07-30T04:12:14;14.60;99.90
5415;DHT22;2730;51.512;7.504;2023-07-30T04:14:41;14.60;99.90
5415;DHT22;2730;51.512;7.504;2023-07-30T04:17:08;14.70;99.90
5415;DHT22;2730;51.512;7.504;2023-07-30T04:19:34;14.60;99.90
5415;DHT22;2730;51.512;7.504;2023-07-30T04:22:01;14.70;99.90
5415;DHT22;2730;51.512;7.504;2023-07-30T04:24:28;14.70;99.90
5415;DHT22;2730;51.512;7.504;2023-07-30T04:26:55;14.70;99.90
5415;DHT22;2730;51.512;7.504;2023-07-30T04:29:23;14.70;99.90
5415;DHT22;2730;51.512;7.504;2023-07-30T04:31:50;14.80;99.90
5415;DHT22;2730;51.512;7.504;2023-07-30T04:34:16;14.80;99.90
5415;DHT22;2730;51.512;7.504;2023-07-30T04:36:43;14.80;99.90
5415;DHT22;2730;51.512;7.504;2023-07-30T04:39:10;14.90;99.90
5415;DHT22;2730;51.512;7.504;2023-07-30T04:41:37;14.80;99.90
5415;DHT22;2730;51.512;7.504;2023-07-30T04:44:04;14.90;99.90
5415;DHT22;2730;51.512;7.504;2023-07-30T04:46:32;14.90;99.90
5415;DHT22;2730;51.512;7.504;2023-07-30T04:49:02;15.00;99.90
5415;DHT22;2730;51.512;7.504;2023-07-30T04:51:29;15.00;99.90
5415;DHT22;2730;51.512;7.504;2023-07-30T04:53:55;15.10;99.90
5415;DHT22;2730;51.512;7.504;2023-07-30T04:56:22;15.10;99.90
5415;DHT22;2730;51.512;7.504;2023-07-30T04:58:51;15.10;99.90
5415;DHT22;2730;51.512;7.504;2023-07-30T05:01:18;15.20;99.90
5415;DHT22;2730;51.512;7.504;2023-07-30T05:03:46;15.20;99.90
5415;DHT22;2730;51.512;7.504;2023-07-30T05:06:13;15.30;99.90
5415;DHT22;2730;51.512;7.504;2023-07-30T05:08:40;15.40;99.90
5415;DHT22;2730;51.512;7.504;2023-07-30T05:11:06;15.60;99.90
5415;DHT22;2730;51.512;7.504;2023-07-30T05:13:33;15.70;99.90
5415;DHT22;2730;51.512;7.504;2023-07-30T05:16:00;15.90;99.90
5415;DHT22;2730;51.512;7.504;2023-07-30T05:18:27;16.10;99.90
5415;DHT22;2730;51.512;7.504;2023-07-30T05:20:55;16.20;99.90
5415;DHT22;2730;51.512;7.504;2023-07-30T05:23:22;16.30;99.90
5415;DHT22;2730;51.512;7.504;2023-07-30T05:25:49;16.60;99.90
5415;DHT22;2730;51.512;7.504;2023-07-30T05:28:15;16.80;99.90
5415;DHT22;2730;51.512;7.504;2023-07-30T05:30:42;17.00;99.90
5415;DHT22;2730;51.512;7.504;2023-07-30T05:33:09;17.10;99.90
5415;DHT22;2730;51.512;7.504;2023-07-30T05:35:36;17.10;99.90
5415;DHT22;2730;51.512;7.504;2023-07-30T05:38:04;17.20;99.90
5415;DHT22;2730;51.512;7.504;2023-07-30T05:40:31;17.10;99.90
5415;DHT22;2730;51.512;7.504;2023-07-30T05:42:57;17.00;99.90
5415;DHT22;2730;51.512;7.504;2023-07-30T05:45:26;16.90;99.90
5415;DHT22;2730;51.512;7.504;2023-07-30T05:47:53;16.90;99.90
5415;DHT22;2730;51.512;7.504;2023-07-30T05:50:19;16.90;99.90
5415;DHT22;2730;51.512;7.504;2023-07-30T05:52:46;16.90;99.90
5415;DHT22;2730;51.512;7.504;2023-07-30T05:55:14;16.90;99.90
5415;DHT22;2730;51.512;7.504;2023-07-30T05:57:41;16.80;99.90
5415;DHT22;2730;51.512;7.504;2023-07-30T06:00:08;16.70;99.90
5415;DHT22;2730;51.512;7.504;2023-07-30T06:02:35;16.70;99.90
5415;DHT22;2730;51.512;7.504;2023-07-30T06:05:02;16.70;99.90
5415;DHT22;2730;51.512;7.504;2023-07-30T06:07:29;16.70;99.90
5415;DHT22;2730;51.512;7.504;2023-07-30T06:09:56;16.70;99.90
5415;DHT22;2730;51.512;7.504;2023-07-30T06:12:24;16.80;99.90
5415;DHT22;2730;51.512;7.504;2023-07-30T06:14:51;16.80;99.90
5415;DHT22;2730;51.512;7.504;2023-07-30T06:17:17;16.80;99.90
5415;DHT22;2730;51.512;7.504;2023-07-30T06:19:44;16.90;99.90
5415;DHT22;2730;51.512;7.504;2023-07-30T06:22:11;16.80;99.90
5415;DHT22;2730;51.512;7.504;2023-07-30T06:24:38;16.90;99.90
5415;DHT22;2730;51.512;7.504;2023-07-30T06:27:05;16.90;99.90
5415;DHT22;2730;51.512;7.504;2023-07-30T06:29:33;16.80;99.90
5415;DHT22;2730;51.512;7.504;2023-07-30T06:32:00;16.80;99.90
5415;DHT22;2730;51.512;7.504;2023-07-30T06:34:27;16.80;99.90
5415;DHT22;2730;51.512;7.504;2023-07-30T06:36:54;16.80;99.90
5415;DHT22;2730;51.512;7.504;2023-07-30T06:39:21;16.80;99.90
5415;DHT22;2730;51.512;7.504;2023-07-30T06:41:48;16.90;99.90
5415;DHT22;2730;51.512;7.504;2023-07-30T06:44:14;16.80;99.90
5415;DHT22;2730;51.512;7.504;2023-07-30T06:46:43;16.90;99.90
5415;DHT22;2730;51.512;7.504;2023-07-30T06:49:09;16.80;99.90
5415;DHT22;2730;51.512;7.504;2023-07-30T06:51:36;16.80;99.90
5415;DHT22;2730;51.512;7.504;2023-07-30T06:54:03;16.80;99.90
5415;DHT22;2730;51.512;7.504;2023-07-30T06:56:30;16.80;99.90
5415;DHT22;2730;51.512;7.504;2023-07-30T06:58:57;16.80;99.90
5415;DHT22;2730;51.512;7.504;2023-07-30T07:01:23;16.70;99.90
5415;DHT22;2730;51.512;7.504;2023-07-30T07:03:51;16.70;99.90
5415;DHT22;2730;51.512;7.504;2023-07-30T07:06:18;16.80;99.90
5415;DHT22;2730;51.512;7.504;2023-07-30T07:08:45;16.70;99.90
5415;DHT22;2730;51.512;7.504;2023-07-30T07:11:12;16.70;99.90
5415;DHT22;2730;51.512;7.504;2023-07-30T07:13:39;16.70;99.90
5415;DHT22;2730;51.512;7.504;2023-07-30T07:16:05;16.70;99.90
5415;DHT22;2730;51.512;7.504;2023-07-30T07:18:32;16.70;99.90
5415;DHT22;2730;51.512;7.504;2023-07-30T07:21:00;16.60;99.90
5415;DHT22;2730;51.512;7.504;2023-07-30T07:23:28;16.70;99.90
5415;DHT22;2730;51.512;7.504;2023-07-30T07:25:54;16.80;99.90
5415;DHT22;2730;51.512;7.504;2023-07-30T07:28:21;16.60;99.90
5415;DHT22;2730;51.512;7.504;2023-07-30T07:30:48;16.70;99.90
5415;DHT22;2730;51.512;7.504;2023-07-30T07:33:15;16.80;99.90
5415;DHT22;2730;51.512;7.504;2023-07-30T07:35:42;16.80;99.90
5415;DHT22;2730;51.512;7.504;2023-07-30T07:38:10;16.70;99.90
5415;DHT22;2730;51.512;7.504;2023-07-30T07:40:37;16.70;99.90
5415;DHT22;2730;51.512;7.504;2023-07-30T07:43:05;16.60;99.90
5415;DHT22;2730;51.512;7.504;2023-07-30T07:45:32;16.70;99.90
5415;DHT22;2730;51.512;7.504;2023-07-30T07:47:59;16.70;99.90
5415;DHT22;2730;51.512;7.504;2023-07-30T07:50:26;16.90;99.90
5415;DHT22;2730;51.512;7.504;2023-07-30T07:52:53;16.80;99.90
5415;DHT22;2730;51.512;7.504;2023-07-30T07:55:21;16.90;99.90
5415;DHT22;2730;51.512;7.504;2023-07-30T07:57:48;17.00;99.90
5415;DHT22;2730;51.512;7.504;2023-07-30T08:00:15;17.20;99.90
5415;DHT22;2730;51.512;7.504;2023-07-30T08:02:42;17.40;99.90
5415;DHT22;2730;51.512;7.504;2023-07-30T08:05:08;17.50;99.90
5415;DHT22;2730;51.512;7.504;2023-07-30T08:07:35;17.50;99.90
5415;DHT22;2730;51.512;7.504;2023-07-30T08:10:02;17.50;99.90
5415;DHT22;2730;51.512;7.504;2023-07-30T08:12:31;17.40;99.90
5415;DHT22;2730;51.512;7.504;2023-07-30T08:14:58;17.50;99.90
5415;DHT22;2730;51.512;7.504;2023-07-30T08:17:25;17.60;99.90
5415;DHT22;2730;51.512;7.504;2023-07-30T08:19:52;17.70;99.90
5415;DHT22;2730;51.512;7.504;2023-07-30T08:22:18;17.70;99.90
5415;DHT22;2730;51.512;7.504;2023-07-30T08:24:45;17.50;99.90
5415;DHT22;2730;51.512;7.504;2023-07-30T08:27:12;17.50;99.90
5415;DHT22;2730;51.512;7.504;2023-07-30T08:29:40;17.60;99.90
5415;DHT22;2730;51.512;7.504;2023-07-30T08:32:07;17.50;99.90
5415;DHT22;2730;51.512;7.504;2023-07-30T08:34:34;17.60;99.90
5415;DHT22;2730;51.512;7.504;2023-07-30T08:37:01;17.70;99.90
5415;DHT22;2730;51.512;7.504;2023-07-30T08:39:27;17.80;99.90
5415;DHT22;2730;51.512;7.504;2023-07-30T08:41:54;17.80;99.90
5415;DHT22;2730;51.512;7.504;2023-07-30T08:44:21;17.80;99.90
5415;DHT22;2730;51.512;7.504;2023-07-30T08:46:49;18.00;99.90
5415;DHT22;2730;51.512;7.504;2023-07-30T08:49:16;18.20;99.90
5415;DHT22;2730;51.512;7.504;2023-07-30T08:51:43;18.30;99.90
5415;DHT22;2730;51.512;7.504;2023-07-30T08:54:12;18.30;99.90
5415;DHT22;2730;51.512;7.504;2023-07-30T08:56:38;18.20;99.90
5415;DHT22;2730;51.512;7.504;2023-07-30T08:59:06;18.30;99.90
5415;DHT22;2730;51.512;7.504;2023-07-30T09:01:37;18.40;99.90
5415;DHT22;2730;51.512;7.504;2023-07-30T09:04:06;18.70;99.90
5415;DHT22;2730;51.512;7.504;2023-07-30T09:06:34;19.10;99.90
5415;DHT22;2730;51.512;7.504;2023-07-30T09:09:01;19.40;1.00
5415;DHT22;2730;51.512;7.504;2023-07-30T09:11:29;19.70;1.00
5415;DHT22;2730;51.512;7.504;2023-07-30T09:13:57;20.20;1.00
5415;DHT22;2730;51.512;7.504;2023-07-30T09:16:25;20.40;1.00
5415;DHT22;2730;51.512;7.504;2023-07-30T09:18:53;20.60;99.90
5415;DHT22;2730;51.512;7.504;2023-07-30T09:21:29;20.50;99.90
5415;DHT22;2730;51.512;7.504;2023-07-30T09:23:56;20.70;99.90
5415;DHT22;2730;51.512;7.504;2023-07-30T09:26:23;20.70;1.00
5415;DHT22;2730;51.512;7.504;2023-07-30T09:28:50;20.70;1.00
5415;DHT22;2730;51.512;7.504;2023-07-30T09:31:16;21.50;1.00
5415;DHT22;2730;51.512;7.504;2023-07-30T09:33:43;22.30;99.90
5415;DHT22;2730;51.512;7.504;2023-07-30T09:36:10;22.40;1.00
5415;DHT22;2730;51.512;7.504;2023-07-30T09:38:40;22.20;1.00
5415;DHT22;2730;51.512;7.504;2023-07-30T09:41:08;22.10;99.90
5415;DHT22;2730;51.512;7.504;2023-07-30T09:43:36;21.90;99.90
5415;DHT22;2730;51.512;7.504;2023-07-30T09:46:04;21.50;1.00
5415;DHT22;2730;51.512;7.504;2023-07-30T09:48:32;21.20;99.90
5415;DHT22;2730;51.512;7.504;2023-07-30T09:51:01;21.00;1.00
5415;DHT22;2730;51.512;7.504;2023-07-30T09:53:30;20.90;1.00
5415;DHT22;2730;51.512;7.504;2023-07-30T09:56:01;20.90;1.00
5415;DHT22;2730;51.512;7.504;2023-07-30T09:58:28;21.00;94.80
5415;DHT22;2730;51.512;7.504;2023-07-30T10:00:56;22.10;1.00
5415;DHT22;2730;51.512;7.504;2023-07-30T10:03:24;23.10;90.20
5415;DHT22;2730;51.512;7.504;2023-07-30T10:05:53;23.80;99.90
5415;DHT22;2730;51.512;7.504;2023-07-30T10:08:23;24.50;1.00
5415;DHT22;2730;51.512;7.504;2023-07-30T10:10:51;24.70;1.00
5415;DHT22;2730;51.512;7.504;2023-07-30T10:13:21;24.90;1.00
5415;DHT22;2730;51.512;7.504;2023-07-30T10:15:48;24.90;99.90
5415;DHT22;2730;51.512;7.504;2023-07-30T10:18:16;25.20;99.90
5415;DHT22;2730;51.512;7.504;2023-07-30T10:20:51;25.70;71.70
5415;DHT22;2730;51.512;7.504;2023-07-30T10:23:18;26.40;1.00
5415;DHT22;2730;51.512;7.504;2023-07-30T10:25:47;26.30;1.00
5415;DHT22;2730;51.512;7.504;2023-07-30T10:28:31;26.20;1.00
5415;DHT22;2730;51.512;7.504;2023-07-30T10:30:59;25.70;1.00
5415;DHT22;2730;51.512;7.504;2023-07-30T10:33:44;25.90;1.00
5415;DHT22;2730;51.512;7.504;2023-07-30T10:36:11;25.40;1.00
5415;DHT22;2730;51.512;7.504;2023-07-30T10:38:39;24.80;1.00
5415;DHT22;2730;51.512;7.504;2023-07-30T10:41:09;25.10;1.00
5415;DHT22;2730;51.512;7.504;2023-07-30T10:43:39;24.70;1.00
5415;DHT22;2730;51.512;7.504;2023-07-30T10:46:07;24.50;1.00
5415;DHT22;2730;51.512;7.504;2023-07-30T10:48:36;24.80;1.00
5415;DHT22;2730;51.512;7.504;2023-07-30T10:51:05;25.10;1.00
5415;DHT22;2730;51.512;7.504;2023-07-30T10:53:32;25.60;1.00
5415;DHT22;2730;51.512;7.504;2023-07-30T10:56:01;24.80;1.00
5415;DHT22;2730;51.512;7.504;2023-07-30T10:58:30;24.80;1.00
5415;DHT22;2730;51.512;7.504;2023-07-30T11:00:58;24.60;1.00
5415;DHT22;2730;51.512;7.504;2023-07-30T11:03:25;25.00;1.00
5415;DHT22;2730;51.512;7.504;2023-07-30T11:05:53;24.50;1.00
5415;DHT22;2730;51.512;7.504;2023-07-30T11:08:22;24.20;1.00
5415;DHT22;2730;51.512;7.504;2023-07-30T11:10:58;23.90;8.60
5415;DHT22;2730;51.512;7.504;2023-07-30T11:13:25;23.70;96.90
5415;DHT22;2730;51.512;7.504;2023-07-30T11:15:51;23.50;94.70
5415;DHT22;2730;51.512;7.504;2023-07-30T11:18:20;23.00;99.90
5415;DHT22;2730;51.512;7.504;2023-07-30T11:20:46;22.60;99.90
5415;DHT22;2730;51.512;7.504;2023-07-30T11:23:19;22.20;99.90
5415;DHT22;2730;51.512;7.504;2023-07-30T11:25:47;22.10;1.00
5415;DHT22;2730;51.512;7.504;2023-07-30T11:28:26;21.80;1.00
5415;DHT22;2730;51.512;7.504;2023-07-30T11:30:53;21.90;1.00
5415;DHT22;2730;51.512;7.504;2023-07-30T11:33:22;22.00;1.00
5415;DHT22;2730;51.512;7.504;2023-07-30T11:35:48;22.10;1.00
5415;DHT22;2730;51.512;7.504;2023-07-30T11:38:15;21.90;1.00
5415;DHT22;2730;51.512;7.504;2023-07-30T11:40:43;22.20;1.00
5415;DHT22;2730;51.512;7.504;2023-07-30T11:43:10;22.30;1.00
5415;DHT22;2730;51.512;7.504;2023-07-30T11:45:37;22.40;1.00
5415;DHT22;2730;51.512;7.504;2023-07-30T11:48:08;22.40;99.90
5415;DHT22;2730;51.512;7.504;2023-07-30T11:50:50;22.60;99.90
5415;DHT22;2730;51.512;7.504;2023-07-30T11:53:18;22.70;1.00
5415;DHT22;2730;51.512;7.504;2023-07-30T11:55:45;22.70;1.00
5415;DHT22;2730;51.512;7.504;2023-07-30T11:58:12;22.70;99.90
5415;DHT22;2730;51.512;7.504;2023-07-30T12:00:40;22.90;99.90
5415;DHT22;2730;51.512;7.504;2023-07-30T12:03:10;22.90;99.90
5415;DHT22;2730;51.512;7.504;2023-07-30T12:05:38;22.90;99.90
5415;DHT22;2730;51.512;7.504;2023-07-30T12:08:13;22.80;99.90
5415;DHT22;2730;51.512;7.504;2023-07-30T12:10:43;22.60;99.90
5415;DHT22;2730;51.512;7.504;2023-07-30T12:13:15;22.50;99.90
5415;DHT22;2730;51.512;7.504;2023-07-30T12:15:44;22.50;1.00
5415;DHT22;2730;51.512;7.504;2023-07-30T12:18:11;22.70;1.00
5415;DHT22;2730;51.512;7.504;2023-07-30T12:20:37;22.80;1.00
5415;DHT22;2730;51.512;7.504;2023-07-30T12:23:04;23.10;99.90
5415;DHT22;2730;51.512;7.504;2023-07-30T12:25:32;23.00;99.90
5415;DHT22;2730;51.512;7.504;2023-07-30T12:27:59;22.60;1.00
5415;DHT22;2730;51.512;7.504;2023-07-30T12:30:26;22.60;99.90
5415;DHT22;2730;51.512;7.504;2023-07-30T12:32:53;22.40;1.00
5415;DHT22;2730;51.512;7.504;2023-07-30T12:35:20;22.50;1.00
5415;DHT22;2730;51.512;7.504;2023-07-30T12:37:47;22.50;1.00
5415;DHT22;2730;51.512;7.504;2023-07-30T12:40:14;22.60;1.00
5415;DHT22;2730;51.512;7.504;2023-07-30T12:42:42;22.60;1.00
5415;DHT22;2730;51.512;7.504;2023-07-30T12:45:09;22.90;99.90
5415;DHT22;2730;51.512;7.504;2023-07-30T12:47:36;22.80;99.90
5415;DHT22;2730;51.512;7.504;2023-07-30T12:50:04;22.80;99.90
5415;DHT22;2730;51.512;7.504;2023-07-30T12:52:32;22.90;99.90
5415;DHT22;2730;51.512;7.504;2023-07-30T12:54:59;22.90;99.90
5415;DHT22;2730;51.512;7.504;2023-07-30T12:57:26;23.00;99.90
5415;DHT22;2730;51.512;7.504;2023-07-30T12:59:54;23.00;99.90
5415;DHT22;2730;51.512;7.504;2023-07-30T13:02:21;22.90;99.90
5415;DHT22;2730;51.512;7.504;2023-07-30T13:04:48;22.90;99.90
5415;DHT22;2730;51.512;7.504;2023-07-30T13:07:14;22.90;99.90
5415;DHT22;2730;51.512;7.504;2023-07-30T13:09:41;22.90;99.90
5415;DHT22;2730;51.512;7.504;2023-07-30T13:12:08;22.90;99.90
5415;DHT22;2730;51.512;7.504;2023-07-30T13:14:35;22.80;44.40
5415;DHT22;2730;51.512;7.504;2023-07-30T13:17:03;22.70;99.90
5415;DHT22;2730;51.512;7.504;2023-07-30T13:19:30;22.70;99.90
5415;DHT22;2730;51.512;7.504;2023-07-30T13:21:58;22.70;99.90
5415;DHT22;2730;51.512;7.504;2023-07-30T13:24:25;22.80;99.90
5415;DHT22;2730;51.512;7.504;2023-07-30T13:26:55;22.60;99.90
5415;DHT22;2730;51.512;7.504;2023-07-30T13:29:21;22.70;99.90
5415;DHT22;2730;51.512;7.504;2023-07-30T13:31:48;22.70;99.90
5415;DHT22;2730;51.512;7.504;2023-07-30T13:34:16;22.60;99.90
5415;DHT22;2730;51.512;7.504;2023-07-30T13:36:43;22.60;99.90
5415;DHT22;2730;51.512;7.504;2023-07-30T13:39:10;22.70;99.90
5415;DHT22;2730;51.512;7.504;2023-07-30T13:41:36;22.70;99.90
5415;DHT22;2730;51.512;7.504;2023-07-30T13:44:03;22.70;1.00
5415;DHT22;2730;51.512;7.504;2023-07-30T13:46:30;22.50;1.00
5415;DHT22;2730;51.512;7.504;2023-07-30T13:48:57;22.30;1.00
5415;DHT22;2730;51.512;7.504;2023-07-30T13:51:25;22.20;1.00
5415;DHT22;2730;51.512;7.504;2023-07-30T13:53:57;22.20;1.00
5415;DHT22;2730;51.512;7.504;2023-07-30T13:56:24;22.30;1.00
5415;DHT22;2730;51.512;7.504;2023-07-30T13:58:51;22.50;1.00
5415;DHT22;2730;51.512;7.504;2023-07-30T14:01:17;22.50;1.00
5415;DHT22;2730;51.512;7.504;2023-07-30T14:03:44;22.80;1.00
5415;DHT22;2730;51.512;7.504;2023-07-30T14:06:11;22.60;1.00
5415;DHT22;2730;51.512;7.504;2023-07-30T14:08:39;22.80;1.00
5415;DHT22;2730;51.512;7.504;2023-07-30T14:11:06;22.90;1.00
5415;DHT22;2730;51.512;7.504;2023-07-30T14:13:33;23.10;1.00
5415;DHT22;2730;51.512;7.504;2023-07-30T14:16:00;23.00;1.00
5415;DHT22;2730;51.512;7.504;2023-07-30T14:18:26;23.10;1.00
5415;DHT22;2730;51.512;7.504;2023-07-30T14:20:53;23.10;1.00
5415;DHT22;2730;51.512;7.504;2023-07-30T14:23:20;22.90;1.00
5415;DHT22;2730;51.512;7.504;2023-07-30T14:25:48;22.60;1.00
5415;DHT22;2730;51.512;7.504;2023-07-30T14:28:15;22.40;1.00
5415;DHT22;2730;51.512;7.504;2023-07-30T14:30:41;22.30;1.00
5415;DHT22;2730;51.512;7.504;2023-07-30T14:33:09;22.30;1.00
5415;DHT22;2730;51.512;7.504;2023-07-30T14:35:36;22.40;1.00
5415;DHT22;2730;51.512;7.504;2023-07-30T14:38:04;22.20;91.00
5415;DHT22;2730;51.512;7.504;2023-07-30T14:40:31;22.30;16.90
5415;DHT22;2730;51.512;7.504;2023-07-30T14:42:59;22.20;33.60
5415;DHT22;2730;51.512;7.504;2023-07-30T14:45:25;22.10;99.90
5415;DHT22;2730;51.512;7.504;2023-07-30T14:47:52;22.00;99.90
5415;DHT22;2730;51.512;7.504;2023-07-30T14:50:19;21.90;99.90
5415;DHT22;2730;51.512;7.504;2023-07-30T14:52:46;21.90;99.90
5415;DHT22;2730;51.512;7.504;2023-07-30T14:55:13;21.80;99.90
5415;DHT22;2730;51.512;7.504;2023-07-30T14:57:40;21.80;99.90
5415;DHT22;2730;51.512;7.504;2023-07-30T15:00:09;21.60;99.90
5415;DHT22;2730;51.512;7.504;2023-07-30T15:02:39;21.50;99.90
5415;DHT22;2730;51.512;7.504;2023-07-30T15:05:07;21.50;99.90
5415;DHT22;2730;51.512;7.504;2023-07-30T15:07:34;21.50;99.90
5415;DHT22;2730;51.512;7.504;2023-07-30T15:10:01;21.60;99.90
5415;DHT22;2730;51.512;7.504;2023-07-30T15:12:28;21.50;1.00
5415;DHT22;2730;51.512;7.504;2023-07-30T15:14:55;21.50;99.90
5415;DHT22;2730;51.512;7.504;2023-07-30T15:17:23;21.80;1.00
5415;DHT22;2730;51.512;7.504;2023-07-30T15:19:50;22.00;99.90
5415;DHT22;2730;51.512;7.504;2023-07-30T15:22:18;22.10;99.90
5415;DHT22;2730;51.512;7.504;2023-07-30T15:24:44;22.00;99.90
5415;DHT22;2730;51.512;7.504;2023-07-30T15:27:11;22.00;99.90
5415;DHT22;2730;51.512;7.504;2023-07-30T15:29:38;21.80;99.90
5415;DHT22;2730;51.512;7.504;2023-07-30T15:32:05;21.60;99.90
5415;DHT22;2730;51.512;7.504;2023-07-30T15:34:33;21.50;99.90
5415;DHT22;2730;51.512;7.504;2023-07-30T15:37:00;21.40;99.90
5415;DHT22;2730;51.512;7.504;2023-07-30T15:39:27;21.40;1.00
5415;DHT22;2730;51.512;7.504;2023-07-30T15:41:54;21.40;1.00
5415;DHT22;2730;51.512;7.504;2023-07-30T15:44:21;21.40;1.00
5415;DHT22;2730;51.512;7.504;2023-07-30T15:46:48;21.40;1.00
5415;DHT22;2730;51.512;7.504;2023-07-30T15:49:15;21.30;1.00
5415;DHT22;2730;51.512;7.504;2023-07-30T15:51:43;21.30;1.00
5415;DHT22;2730;51.512;7.504;2023-07-30T15:54:10;21.20;65.60
5415;DHT22;2730;51.512;7.504;2023-07-30T15:56:36;21.00;99.90
5415;DHT22;2730;51.512;7.504;2023-07-30T15:59:03;21.00;99.90
5415;DHT22;2730;51.512;7.504;2023-07-30T16:01:30;20.90;99.90
5415;DHT22;2730;51.512;7.504;2023-07-30T16:03:57;21.10;99.90
5415;DHT22;2730;51.512;7.504;2023-07-30T16:06:23;21.30;99.90